sensor_id;sensor_type;location;lat;lon;timestamp;temperature;humidity
4594;DHT22;2309;51.674;8.368;2023-04-12T00:01:29;7.60;79.30
4594;DHT22;2309;51.674;8.368;2023-04-12T00:03:56;7.70;74.20
4594;DHT22;2309;51.674;8.368;2023-04-12T00:06:25;7.80;72.60
4594;DHT22;2309;51.674;8.368;2023-04-12T00:08:53;7.80;71.50
4594;DHT22;2309;51.674;8.368;2023-04-12T00:11:21;7.90;68.80
4594;DHT22;2309;51.674;8.368;2023-04-12T00:13:47;7.90;69.40
4594;DHT22;2309;51.674;8.368;2023-04-12T00:16:14;7.90;71.40
4594;DHT22;2309;51.674;8.368;2023-04-12T00:18:43;7.90;71.20
4594;DHT22;2309;51.674;8.368;2023-04-12T00:21:10;7.90;70.90
4594;DHT22;2309;51.674;8.368;2023-04-12T00:23:38;7.90;69.00
4594;DHT22;2309;51.674;8.368;2023-04-12T00:26:05;8.00;67.60
4594;DHT22;2309;51.674;8.368;2023-04-12T00:28:31;7.90;62.90
4594;DHT22;2309;51.674;8.368;2023-04-12T00:30:58;8.10;99.90
4594;DHT22;2309;51.674;8.368;2023-04-12T00:33:25;8.20;99.90
4594;DHT22;2309;51.674;8.368;2023-04-12T00:35:52;8.20;99.90
4594;DHT22;2309;51.674;8.368;2023-04-12T00:38:19;8.30;99.90
4594;DHT22;2309;51.674;8.368;2023-04-12T00:40:46;8.30;99.90
4594;DHT22;2309;51.674;8.368;2023-04-12T00:43:13;8.30;99.90
4594;DHT22;2309;51.674;8.368;2023-04-12T00:45:42;8.30;99.90
4594;DHT22;2309;51.674;8.368;2023-04-12T00:48:12;8.40;99.90
4594;DHT22;2309;51.674;8.368;2023-04-12T00:50:39;8.30;99.90
4594;DHT22;2309;51.674;8.368;2023-04-12T00:53:07;8.30;99.90
4594;DHT22;2309;51.674;8.368;2023-04-12T00:55:36;8.30;99.90
4594;DHT22;2309;51.674;8.368;2023-04-12T00:58:03;8.20;99.90
4594;DHT22;2309;51.674;8.368;2023-04-12T01:00:30;8.10;99.90
4594;DHT22;2309;51.674;8.368;2023-04-12T01:02:57;7.90;99.90
4594;DHT22;2309;51.674;8.368;2023-04-12T01:05:25;7.80;1.00
4594;DHT22;2309;51.674;8.368;2023-04-12T01:10:36;7.70;1.00
4594;DHT22;2309;51.674;8.368;2023-04-12T01:13:00;7.60;1.00
4594;DHT22;2309;51.674;8.368;2023-04-12T01:15:19;7.60;1.00
4594;DHT22;2309;51.674;8.368;2023-04-12T01:17:58;7.70;1.00
4594;DHT22;2309;51.674;8.368;2023-04-12T01:20:18;7.70;1.00
4594;DHT22;2309;51.674;8.368;2023-04-12T01:27:45;7.90;99.90
4594;DHT22;2309;51.674;8.368;2023-04-12T01:30:15;8.00;99.90
4594;DHT22;2309;51.674;8.368;2023-04-12T01:32:42;8.00;99.90
4594;DHT22;2309;51.674;8.368;2023-04-12T01:35:10;8.10;99.90
4594;DHT22;2309;51.674;8.368;2023-04-12T01:37:38;8.00;99.90
4594;DHT22;2309;51.674;8.368;2023-04-12T01:40:08;8.10;99.90
4594;DHT22;2309;51.674;8.368;2023-04-12T01:42:34;8.10;99.90
4594;DHT22;2309;51.674;8.368;2023-04-12T01:45:05;8.20;99.90
4594;DHT22;2309;51.674;8.368;2023-04-12T01:47:32;8.10;99.90
4594;DHT22;2309;51.674;8.368;2023-04-12T01:50:33;8.10;99.90
4594;DHT22;2309;51.674;8.368;2023-04-12T01:52:30;8.10;99.90
4594;DHT22;2309;51.674;8.368;2023-04-12T01:54:57;7.90;99.90
4594;DHT22;2309;51.674;8.368;2023-04-12T01:57:26;8.10;99.90
4594;DHT22;2309;51.674;8.368;2023-04-12T01:59:54;8.20;99.90
4594;DHT22;2309;51.674;8.368;2023-04-12T02:02:24;8.20;99.90
4594;DHT22;2309;51.674;8.368;2023-04-12T02:04:51;8.20;99.90
4594;DHT22;2309;51.674;8.368;2023-04-12T02:07:20;8.20;99.90
4594;DHT22;2309;51.674;8.368;2023-04-12T02:09:48;8.30;99.90
4594;DHT22;2309;51.674;8.368;2023-04-12T02:12:18;8.30;99.90
4594;DHT22;2309;51.674;8.368;2023-04-12T02:14:46;8.40;99.90
4594;DHT22;2309;51.674;8.368;2023-04-12T02:17:15;8.40;99.90
4594;DHT22;2309;51.674;8.368;2023-04-12T02:19:43;8.40;99.90
4594;DHT22;2309;51.674;8.368;2023-04-12T02:22:12;8.40;99.90
4594;DHT22;2309;51.674;8.368;2023-04-12T02:24:39;8.50;99.90
4594;DHT22;2309;51.674;8.368;2023-04-12T02:27:06;8.40;99.90
4594;DHT22;2309;51.674;8.368;2023-04-12T02:29:33;8.50;99.90
4594;DHT22;2309;51.674;8.368;2023-04-12T02:31:59;8.50;99.90
4594;DHT22;2309;51.674;8.368;2023-04-12T02:34:27;8.50;99.90
4594;DHT22;2309;51.674;8.368;2023-04-12T02:36:56;8.50;99.90
4594;DHT22;2309;51.674;8.368;2023-04-12T02:39:23;8.50;99.90
4594;DHT22;2309;51.674;8.368;2023-04-12T02:41:51;8.50;99.90
4594;DHT22;2309;51.674;8.368;2023-04-12T02:44:18;8.50;99.90
4594;DHT22;2309;51.674;8.368;2023-04-12T02:46:45;8.60;99.90
4594;DHT22;2309;51.674;8.368;2023-04-12T02:49:13;8.60;99.90
4594;DHT22;2309;51.674;8.368;2023-04-12T02:51:40;8.60;99.90
4594;DHT22;2309;51.674;8.368;2023-04-12T02:54:07;8.60;99.90
4594;DHT22;2309;51.674;8.368;2023-04-12T02:56:34;8.60;99.90
4594;DHT22;2309;51.674;8.368;2023-04-12T02:59:02;8.60;99.90
4594;DHT22;2309;51.674;8.368;2023-04-12T03:01:30;8.50;99.90
4594;DHT22;2309;51.674;8.368;2023-04-12T03:03:59;8.50;99.90
4594;DHT22;2309;51.674;8.368;2023-04-12T03:06:26;8.60;99.90
4594;DHT22;2309;51.674;8.368;2023-04-12T03:08:55;8.50;99.90
4594;DHT22;2309;51.674;8.368;2023-04-12T03:11:22;8.60;99.90
4594;DHT22;2309;51.674;8.368;2023-04-12T03:13:49;8.60;99.90
4594;DHT22;2309;51.674;8.368;2023-04-12T03:16:19;8.70;99.90
4594;DHT22;2309;51.674;8.368;2023-04-12T03:18:46;8.70;1.00
4594;DHT22;2309;51.674;8.368;2023-04-12T03:21:13;8.70;99.90
4594;DHT22;2309;51.674;8.368;2023-04-12T03:23:41;8.70;1.00
4594;DHT22;2309;51.674;8.368;2023-04-12T03:26:08;8.80;1.00
4594;DHT22;2309;51.674;8.368;2023-04-12T03:28:35;8.80;1.00
4594;DHT22;2309;51.674;8.368;2023-04-12T03:31:01;8.80;1.00
4594;DHT22;2309;51.674;8.368;2023-04-12T03:33:31;8.80;1.00
4594;DHT22;2309;51.674;8.368;2023-04-12T03:35:58;8.90;1.00
4594;DHT22;2309;51.674;8.368;2023-04-12T03:38:26;8.90;1.00
4594;DHT22;2309;51.674;8.368;2023-04-12T03:40:52;8.90;1.00
4594;DHT22;2309;51.674;8.368;2023-04-12T03:43:21;8.90;1.00
4594;DHT22;2309;51.674;8.368;2023-04-12T03:45:48;8.90;1.00
4594;DHT22;2309;51.674;8.368;2023-04-12T03:48:15;8.90;1.00
4594;DHT22;2309;51.674;8.368;2023-04-12T03:50:43;8.90;1.00
4594;DHT22;2309;51.674;8.368;2023-04-12T03:53:10;8.80;1.00
4594;DHT22;2309;51.674;8.368;2023-04-12T03:55:37;8.80;1.00
4594;DHT22;2309;51.674;8.368;2023-04-12T03:58:06;8.80;1.00
4594;DHT22;2309;51.674;8.368;2023-04-12T04:00:32;8.80;1.00
4594;DHT22;2309;51.674;8.368;2023-04-12T04:02:59;8.80;1.00
4594;DHT22;2309;51.674;8.368;2023-04-12T04:05:30;8.80;99.90
4594;DHT22;2309;51.674;8.368;2023-04-12T04:07:57;8.80;1.00
4594;DHT22;2309;51.674;8.368;2023-04-12T04:10:26;8.80;1.00
4594;DHT22;2309;51.674;8.368;2023-04-12T04:12:54;8.70;1.00
4594;DHT22;2309;51.674;8.368;2023-04-12T04:17:49;8.50;1.00
4594;DHT22;2309;51.674;8.368;2023-04-12T04:20:18;8.40;1.00
4594;DHT22;2309;51.674;8.368;2023-04-12T04:22:46;8.50;1.00
4594;DHT22;2309;51.674;8.368;2023-04-12T04:27:42;8.50;1.00
4594;DHT22;2309;51.674;8.368;2023-04-12T04:30:09;8.50;1.00
4594;DHT22;2309;51.674;8.368;2023-04-12T04:32:37;8.60;1.00
4594;DHT22;2309;51.674;8.368;2023-04-12T04:35:06;8.70;1.00
4594;DHT22;2309;51.674;8.368;2023-04-12T04:37:33;8.60;1.00
4594;DHT22;2309;51.674;8.368;2023-04-12T04:40:02;8.70;1.00
4594;DHT22;2309;51.674;8.368;2023-04-12T04:44:57;8.70;1.00
4594;DHT22;2309;51.674;8.368;2023-04-12T04:47:27;8.60;1.00
4594;DHT22;2309;51.674;8.368;2023-04-12T04:49:55;8.60;1.00
4594;DHT22;2309;51.674;8.368;2023-04-12T04:52:24;8.70;1.00
4594;DHT22;2309;51.674;8.368;2023-04-12T04:54:54;8.70;1.00
4594;DHT22;2309;51.674;8.368;2023-04-12T04:57:22;8.70;1.00
4594;DHT22;2309;51.674;8.368;2023-04-12T04:59:49;8.60;1.00
4594;DHT22;2309;51.674;8.368;2023-04-12T05:02:18;8.70;1.00
4594;DHT22;2309;51.674;8.368;2023-04-12T05:04:46;8.70;1.00
4594;DHT22;2309;51.674;8.368;2023-04-12T05:07:12;8.70;1.00
4594;DHT22;2309;51.674;8.368;2023-04-12T05:09:43;8.80;1.00
4594;DHT22;2309;51.674;8.368;2023-04-12T05:14:37;8.80;1.00
4594;DHT22;2309;51.674;8.368;2023-04-12T05:19:32;8.90;1.00
4594;DHT22;2309;51.674;8.368;2023-04-12T05:21:59;9.00;1.00
4594;DHT22;2309;51.674;8.368;2023-04-12T05:24:29;9.00;1.00
4594;DHT22;2309;51.674;8.368;2023-04-12T05:26:56;9.10;1.00
4594;DHT22;2309;51.674;8.368;2023-04-12T05:39:42;9.20;1.00
4594;DHT22;2309;51.674;8.368;2023-04-12T05:42:13;9.30;1.00
4594;DHT22;2309;51.674;8.368;2023-04-12T05:44:39;9.20;1.00
4594;DHT22;2309;51.674;8.368;2023-04-12T05:47:06;9.70;1.00
4594;DHT22;2309;51.674;8.368;2023-04-12T05:49:40;9.10;1.00
4594;DHT22;2309;51.674;8.368;2023-04-12T05:52:17;9.10;1.00
4594;DHT22;2309;51.674;8.368;2023-04-12T05:54:51;9.20;1.00
4594;DHT22;2309;51.674;8.368;2023-04-12T05:57:22;9.40;1.00
4594;DHT22;2309;51.674;8.368;2023-04-12T05:59:48;9.30;1.00
4594;DHT22;2309;51.674;8.368;2023-04-12T06:02:15;10.20;1.00
4594;DHT22;2309;51.674;8.368;2023-04-12T06:04:48;9.40;99.90
4594;DHT22;2309;51.674;8.368;2023-04-12T06:07:13;9.30;1.00
4594;DHT22;2309;51.674;8.368;2023-04-12T06:09:44;9.30;1.00
4594;DHT22;2309;51.674;8.368;2023-04-12T06:12:19;9.30;1.00
4594;DHT22;2309;51.674;8.368;2023-04-12T06:17:09;9.40;99.90
4594;DHT22;2309;51.674;8.368;2023-04-12T06:22:03;9.30;1.00
4594;DHT22;2309;51.674;8.368;2023-04-12T06:24:32;9.30;1.00
4594;DHT22;2309;51.674;8.368;2023-04-12T06:26:58;9.20;1.00
4594;DHT22;2309;51.674;8.368;2023-04-12T06:29:25;9.10;1.00
4594;DHT22;2309;51.674;8.368;2023-04-12T06:31:51;8.90;1.00
4594;DHT22;2309;51.674;8.368;2023-04-12T06:34:18;9.00;1.00
4594;DHT22;2309;51.674;8.368;2023-04-12T06:36:45;8.90;1.00
4594;DHT22;2309;51.674;8.368;2023-04-12T06:39:12;8.90;1.00
4594;DHT22;2309;51.674;8.368;2023-04-12T06:41:42;8.90;99.90
4594;DHT22;2309;51.674;8.368;2023-04-12T06:44:10;8.80;99.90
4594;DHT22;2309;51.674;8.368;2023-04-12T06:46:38;8.70;99.90
4594;DHT22;2309;51.674;8.368;2023-04-12T06:49:07;8.60;99.90
4594;DHT22;2309;51.674;8.368;2023-04-12T06:51:34;8.60;99.90
4594;DHT22;2309;51.674;8.368;2023-04-12T06:54:01;8.50;99.90
4594;DHT22;2309;51.674;8.368;2023-04-12T06:56:28;8.60;99.90
4594;DHT22;2309;51.674;8.368;2023-04-12T06:58:55;8.60;99.90
4594;DHT22;2309;51.674;8.368;2023-04-12T07:01:23;8.50;99.90
4594;DHT22;2309;51.674;8.368;2023-04-12T07:03:50;8.50;99.90
4594;DHT22;2309;51.674;8.368;2023-04-12T07:06:17;8.40;99.90
4594;DHT22;2309;51.674;8.368;2023-04-12T07:08:46;8.40;99.90
4594;DHT22;2309;51.674;8.368;2023-04-12T07:11:13;8.50;99.90
4594;DHT22;2309;51.674;8.368;2023-04-12T07:13:43;8.50;99.90
4594;DHT22;2309;51.674;8.368;2023-04-12T07:16:12;8.50;99.90
4594;DHT22;2309;51.674;8.368;2023-04-12T07:18:39;8.50;99.90
4594;DHT22;2309;51.674;8.368;2023-04-12T07:21:06;8.50;99.90
4594;DHT22;2309;51.674;8.368;2023-04-12T07:23:33;8.60;99.90
4594;DHT22;2309;51.674;8.368;2023-04-12T07:26:01;8.60;99.90
4594;DHT22;2309;51.674;8.368;2023-04-12T07:28:28;8.60;99.90
4594;DHT22;2309;51.674;8.368;2023-04-12T07:30:55;8.70;99.90
4594;DHT22;2309;51.674;8.368;2023-04-12T07:33:23;8.60;99.90
4594;DHT22;2309;51.674;8.368;2023-04-12T07:35:51;8.50;99.90
4594;DHT22;2309;51.674;8.368;2023-04-12T07:38:18;8.60;99.90
4594;DHT22;2309;51.674;8.368;2023-04-12T07:40:45;8.60;99.90
4594;DHT22;2309;51.674;8.368;2023-04-12T07:43:15;8.60;99.90
4594;DHT22;2309;51.674;8.368;2023-04-12T07:45:43;8.70;99.90
4594;DHT22;2309;51.674;8.368;2023-04-12T07:48:10;8.70;99.90
4594;DHT22;2309;51.674;8.368;2023-04-12T07:50:39;8.80;99.90
4594;DHT22;2309;51.674;8.368;2023-04-12T07:53:37;8.90;99.90
4594;DHT22;2309;51.674;8.368;2023-04-12T07:55:34;8.90;99.90
4594;DHT22;2309;51.674;8.368;2023-04-12T07:58:04;9.00;99.90
4594;DHT22;2309;51.674;8.368;2023-04-12T08:02:59;9.30;99.90
4594;DHT22;2309;51.674;8.368;2023-04-12T08:07:55;9.50;99.90
4594;DHT22;2309;51.674;8.368;2023-04-12T08:10:23;9.80;99.90
4594;DHT22;2309;51.674;8.368;2023-04-12T08:12:50;9.70;99.90
4594;DHT22;2309;51.674;8.368;2023-04-12T08:15:17;9.70;99.90
4594;DHT22;2309;51.674;8.368;2023-04-12T08:17:45;9.70;99.90
4594;DHT22;2309;51.674;8.368;2023-04-12T08:20:12;9.70;99.90
4594;DHT22;2309;51.674;8.368;2023-04-12T08:22:41;9.60;99.90
4594;DHT22;2309;51.674;8.368;2023-04-12T08:25:08;9.80;99.90
4594;DHT22;2309;51.674;8.368;2023-04-12T08:27:35;9.80;99.90
4594;DHT22;2309;51.674;8.368;2023-04-12T08:30:05;10.10;99.90
4594;DHT22;2309;51.674;8.368;2023-04-12T08:32:34;10.30;99.90
4594;DHT22;2309;51.674;8.368;2023-04-12T08:35:04;10.30;99.90
4594;DHT22;2309;51.674;8.368;2023-04-12T08:37:32;10.40;99.90
4594;DHT22;2309;51.674;8.368;2023-04-12T08:40:02;10.60;99.90
4594;DHT22;2309;51.674;8.368;2023-04-12T08:42:29;10.50;99.90
4594;DHT22;2309;51.674;8.368;2023-04-12T08:45:02;9.90;97.10
4594;DHT22;2309;51.674;8.368;2023-04-12T08:47:25;10.30;99.90
4594;DHT22;2309;51.674;8.368;2023-04-12T08:49:52;10.30;99.90
4594;DHT22;2309;51.674;8.368;2023-04-12T08:52:19;10.20;99.90
4594;DHT22;2309;51.674;8.368;2023-04-12T08:54:46;10.30;99.90
4594;DHT22;2309;51.674;8.368;2023-04-12T08:57:13;10.10;99.80
4594;DHT22;2309;51.674;8.368;2023-04-12T08:59:41;10.20;99.00
4594;DHT22;2309;51.674;8.368;2023-04-12T09:02:08;10.40;99.90
4594;DHT22;2309;51.674;8.368;2023-04-12T09:04:45;10.40;98.00
4594;DHT22;2309;51.674;8.368;2023-04-12T09:07:03;10.70;99.90
4594;DHT22;2309;51.674;8.368;2023-04-12T09:09:46;10.80;95.60
4594;DHT22;2309;51.674;8.368;2023-04-12T09:12:06;10.90;87.30
4594;DHT22;2309;51.674;8.368;2023-04-12T09:14:28;11.10;94.10
4594;DHT22;2309;51.674;8.368;2023-04-12T09:16:55;10.90;95.10
4594;DHT22;2309;51.674;8.368;2023-04-12T09:19:29;10.90;95.20
4594;DHT22;2309;51.674;8.368;2023-04-12T09:21:51;10.90;95.90
4594;DHT22;2309;51.674;8.368;2023-04-12T09:24:18;10.90;95.50
4594;DHT22;2309;51.674;8.368;2023-04-12T09:26:47;10.70;94.90
4594;DHT22;2309;51.674;8.368;2023-04-12T09:29:22;10.60;95.40
4594;DHT22;2309;51.674;8.368;2023-04-12T09:31:53;10.70;95.60
4594;DHT22;2309;51.674;8.368;2023-04-12T09:34:11;10.80;88.30
4594;DHT22;2309;51.674;8.368;2023-04-12T09:36:40;9.60;87.10
4594;DHT22;2309;51.674;8.368;2023-04-12T09:39:07;11.00;97.90
4594;DHT22;2309;51.674;8.368;2023-04-12T09:41:34;11.20;96.10
4594;DHT22;2309;51.674;8.368;2023-04-12T09:44:01;11.20;92.70
4594;DHT22;2309;51.674;8.368;2023-04-12T09:46:28;11.30;94.00
4594;DHT22;2309;51.674;8.368;2023-04-12T09:51:24;11.70;94.80
4594;DHT22;2309;51.674;8.368;2023-04-12T09:53:56;11.10;83.10
4594;DHT22;2309;51.674;8.368;2023-04-12T09:56:23;11.20;91.10
4594;DHT22;2309;51.674;8.368;2023-04-12T09:58:50;11.20;91.70
4594;DHT22;2309;51.674;8.368;2023-04-12T10:01:19;11.20;90.30
4594;DHT22;2309;51.674;8.368;2023-04-12T10:03:48;11.50;91.20
4594;DHT22;2309;51.674;8.368;2023-04-12T10:06:15;11.50;90.10
4594;DHT22;2309;51.674;8.368;2023-04-12T10:08:43;11.80;90.00
4594;DHT22;2309;51.674;8.368;2023-04-12T10:14:07;12.10;88.80
4594;DHT22;2309;51.674;8.368;2023-04-12T10:16:44;12.20;90.60
4594;DHT22;2309;51.674;8.368;2023-04-12T10:24:26;12.20;88.80
4594;DHT22;2309;51.674;8.368;2023-04-12T10:26:54;12.30;90.70
4594;DHT22;2309;51.674;8.368;2023-04-12T10:31:54;12.40;89.80
4594;DHT22;2309;51.674;8.368;2023-04-12T10:36:53;12.50;90.90
4594;DHT22;2309;51.674;8.368;2023-04-12T10:54:36;11.90;99.90
4594;DHT22;2309;51.674;8.368;2023-04-12T10:57:39;12.00;99.90
4594;DHT22;2309;51.674;8.368;2023-04-12T10:59:49;11.90;99.90
4594;DHT22;2309;51.674;8.368;2023-04-12T11:02:09;11.80;99.90
4594;DHT22;2309;51.674;8.368;2023-04-12T11:04:30;11.70;99.90
4594;DHT22;2309;51.674;8.368;2023-04-12T15:08:36;11.30;99.90
